Pembroke, United Kingdom
Current Conditions -  °F | °C
As of 2:50 PM on Friday 31 Oct 2014 (Local Time) from EGOP Reporting Station
Broken Clouds Broken Clouds  
Wind Chill: 17°   Ceiling: 1900
Heat Index: 17°   Visibility: 5mi
Dew Point: 15°   Wind: 24mph
Humidity: 88%   Direction: 190°S
Pressure: 29.83"   Gusts: NA
Location:  51.67°N, 4.91°W
Report Text: EGOP 311450Z AUTO 19021KT 8000 // BKN019/// 17/15 Q1010
Loading
Personal Weather Stations






























Interactive Weather Map
Tropical Storm Tracking
New forecast layout! Learn more

10-Day Weather Forecast

Advertisements
Track Severe Weather on mobile